Greenbrier Valley Airport
KLWB : now visible

Airfield :











YOU CAN JOIN US ON...

 
LOGIN :

Register | Disclaimer

   EN    FR    IT 

 









Legend :    VFR   Marginal VFR   IFR   Intensive IFR   Very Intensive IFR
Visi :
Ceiling :
>= 8 km
>= 3000ft
5 to 8 km
1000 to 3000 ft
1500m to 5 km
500 to 1000 ft
800 to 1500m
200 to 500 ft
< 800m
< 200 ft
Symbols :   Thunderstorms  Fog  Heavy snow  Heavy precipitations  Wind > 20 kt






- Airport Elevation : 2302 ft


KLWB - Greenbrier Valley

CURRENT METAR :
  • 161215Z AUTO 00000KT 10SM CLR 22/18 A3005 RMK AO2 T02160182

EXPIRED METARs :
  • 161155Z AUTO 00000KT 10SM CLR 21/18 A3005 RMK AO2 T02060181 10221 20183
  • 161135Z AUTO 00000KT 10SM CLR 20/18 A3005 RMK AO2 T02000176
  • 161115Z AUTO 00000KT 10SM CLR 20/18 A3004 RMK AO2 T01990175
  • 161055Z AUTO 00000KT 10SM CLR 20/17 A3004 RMK AO2 T01990173
  • 161035Z AUTO 00000KT 10SM CLR 19/17 A3003 RMK AO2 T01880171
  • 161015Z AUTO 00000KT 10SM CLR 20/17 A3003 RMK AO2 T01960171
  • 160955Z AUTO 00000KT 10SM CLR 20/17 A3003 RMK AO2 T01950171
  • 160935Z AUTO 00000KT 10SM CLR 20/17 A3002 RMK AO2 T02010173
  • 160915Z AUTO 00000KT 10SM CLR 19/17 A3002 RMK AO2 T01920172
  • 160855Z AUTO 00000KT 10SM CLR 20/17 A3003 RMK AO2 T01970170
  • 160835Z AUTO 00000KT 10SM CLR 20/17 A3003 RMK AO2 T01990173
  • 160815Z AUTO 00000KT 10SM CLR 21/17 A3003 RMK AO2 T02060174
  • 160755Z AUTO 00000KT 10SM CLR 20/18 A3003 RMK AO2 T01980175
  • 160735Z AUTO 00000KT 10SM CLR 21/18 A3004 RMK AO2 T02060175

TAF KLWB
Valid from the 16 at 12:00 until the 17 at 12:00 UTC


161120Z 1612/1712 00000KT P6SM SKC
FM161300 26007KT P6SM SCT070
FM161900 26009KT P6SM VCTS SCT050CB
FM170000 27003KT P6SM SCT090
KZDC FIR / North America



MET'MAP, your aeronautical weather chart ! - Copyright ORBIFLY December 2007 - Disclaimer

ORBIFLY MET'MAP TEAM :

Programming & Development : Alexandra Zaïnal
Original concept : Baudouin d'Aumeries
Technical & hardware support : Manuel Goepfert
Assistance : Marc-Olivier Méhu




SOURCES & CREDITS :

   NOAA       Earth
Advisory